createdAt,value
2023-02-04T00:00:01.425Z,103366.72
2023-02-04T00:02:03.177Z,103360.66
2023-02-04T00:04:05.488Z,103363.44
2023-02-04T00:06:07.626Z,103355.41
2023-02-04T00:08:10.101Z,103357.44
2023-02-04T00:10:11.991Z,103358.44
2023-02-04T00:12:14.344Z,103362.19
2023-02-04T00:14:16.132Z,103354.34
2023-02-04T00:16:17.991Z,103348.22
2023-02-04T00:18:21.990Z,103353.19
2023-02-04T00:20:24.547Z,103360.09
2023-02-04T00:22:29.443Z,103360.31
2023-02-04T00:24:31.581Z,103358.63
2023-02-04T00:26:33.353Z,103356.13
2023-02-04T00:28:35.348Z,103358.88
2023-02-04T00:30:37.160Z,103358.00
2023-02-04T00:32:38.934Z,103365.25
2023-02-04T00:34:41.341Z,103364.19
2023-02-04T00:36:43.145Z,103366.34
2023-02-04T00:38:45.082Z,103359.94
2023-02-04T00:40:47.429Z,103360.31
2023-02-04T00:42:52.167Z,103373.00
2023-02-04T00:44:54.603Z,103365.88
2023-02-04T00:46:57.404Z,103368.38
2023-02-04T00:48:59.366Z,103361.78
2023-02-04T00:51:03.986Z,103363.22
2023-02-04T00:53:06.966Z,103366.31
2023-02-04T00:55:10.632Z,103360.47
2023-02-04T00:57:15.824Z,103368.38
2023-02-04T00:59:17.616Z,103374.31
2023-02-04T01:01:19.735Z,103375.13
2023-02-04T01:03:21.941Z,103374.41
2023-02-04T01:05:23.895Z,103376.66
2023-02-04T01:07:25.940Z,103373.63
2023-02-04T01:09:27.924Z,103375.13
2023-02-04T01:11:31.575Z,103378.84
2023-02-04T01:13:33.413Z,103375.47
2023-02-04T01:15:35.722Z,103380.84
2023-02-04T01:17:37.488Z,103380.22
2023-02-04T01:19:39.639Z,103387.56
2023-02-04T01:21:41.466Z,103390.38
2023-02-04T01:23:43.320Z,103389.25
2023-02-04T01:25:45.182Z,103396.56
2023-02-04T01:27:47.424Z,103397.63
2023-02-04T01:29:49.593Z,103397.63
2023-02-04T01:31:51.530Z,103393.50
2023-02-04T01:33:53.383Z,103389.91
2023-02-04T01:35:55.279Z,103393.50
2023-02-04T01:37:57.504Z,103403.91
2023-02-04T01:40:01.330Z,103401.41
2023-02-04T01:42:04.026Z,103397.41
2023-02-04T01:44:06.733Z,103394.94
2023-02-04T01:46:09.453Z,103404.63
2023-02-04T01:48:13.184Z,103397.53
2023-02-04T01:50:18.713Z,103402.84
2023-02-04T01:52:21.953Z,103398.84
2023-02-04T01:54:24.815Z,103392.53
2023-02-04T01:56:29.681Z,103403.75
2023-02-04T01:58:33.731Z,103402.84
2023-02-04T02:00:35.654Z,103408.00
2023-02-04T02:02:42.650Z,103405.69
2023-02-04T02:04:44.561Z,103408.19
2023-02-04T02:06:52.492Z,103398.75
2023-02-04T02:08:58.455Z,103399.84
2023-02-04T02:11:00.586Z,103402.22
2023-02-04T02:13:02.525Z,103404.00
2023-02-04T02:15:05.471Z,103402.03
2023-02-04T02:17:07.269Z,103403.31
2023-02-04T02:19:15.568Z,103403.31
2023-02-04T02:21:24.631Z,103409.88
2023-02-04T02:23:32.612Z,103403.03
2023-02-04T02:25:34.366Z,103393.78
2023-02-04T02:27:36.562Z,103388.81
2023-02-04T02:29:41.366Z,103396.25
2023-02-04T02:31:43.364Z,103394.47
2023-02-04T02:33:45.476Z,103395.59
2023-02-04T02:35:48.479Z,103398.16
2023-02-04T02:37:50.365Z,103395.59
2023-02-04T02:39:52.228Z,103393.91
2023-02-04T02:41:55.912Z,103397.16
2023-02-04T02:43:58.041Z,103399.72
2023-02-04T02:46:01.906Z,103396.97
2023-02-04T02:48:04.050Z,103395.28
2023-02-04T02:50:06.637Z,103396.81
2023-02-04T02:52:12.161Z,103395.19
2023-02-04T02:54:21.727Z,103387.56
2023-02-04T02:56:23.846Z,103386.56
2023-02-04T02:58:32.399Z,103393.59
2023-02-04T03:00:34.519Z,103390.22
2023-02-04T03:02:36.495Z,103386.66
2023-02-04T03:04:42.929Z,103389.25
2023-02-04T03:06:45.242Z,103387.88
2023-02-04T03:08:50.345Z,103385.41
2023-02-04T03:10:52.452Z,103388.78
2023-02-04T03:12:54.363Z,103384.50
2023-02-04T03:14:56.328Z,103387.88
2023-02-04T03:16:59.482Z,103387.00
2023-02-04T03:19:02.439Z,103386.91
2023-02-04T03:21:07.561Z,103382.06
2023-02-04T03:23:09.465Z,103377.88
2023-02-04T03:25:11.277Z,103374.19
2023-02-04T03:27:15.361Z,103371.72
2023-02-04T03:29:17.442Z,103371.91
2023-02-04T03:31:19.377Z,103371.03
2023-02-04T03:33:21.702Z,103375.97
2023-02-04T03:35:26.398Z,103375.38
2023-02-04T03:37:28.210Z,103383.91
2023-02-04T03:39:30.419Z,103371.63
2023-02-04T03:41:32.150Z,103369.84
2023-02-04T03:43:36.399Z,103374.09
2023-02-04T03:45:45.234Z,103368.78
2023-02-04T03:47:47.655Z,103367.88
2023-02-04T03:49:49.487Z,103371.34
2023-02-04T03:51:51.465Z,103367.41
2023-02-04T03:53:53.235Z,103376.34
2023-02-04T03:55:55.025Z,103381.03
2023-02-04T03:57:56.895Z,103379.56
2023-02-04T03:59:58.755Z,103379.25
2023-02-04T04:02:00.997Z,103380.16
2023-02-04T04:04:02.946Z,103374.03
2023-02-04T04:06:06.477Z,103378.38
2023-02-04T04:08:08.423Z,103380.78
2023-02-04T04:10:12.764Z,103376.94
2023-02-04T04:12:14.606Z,103377.41
2023-02-04T04:14:16.531Z,103373.47
2023-02-04T04:16:18.644Z,103375.63
2023-02-04T04:18:20.541Z,103392.06
2023-02-04T04:20:25.507Z,103386.50
2023-02-04T04:22:27.757Z,103398.81
2023-02-04T04:24:29.650Z,103395.91
2023-02-04T04:26:31.461Z,103405.75
2023-02-04T04:28:33.556Z,103400.50
2023-02-04T04:30:35.423Z,103395.63
2023-02-04T04:32:37.272Z,103398.13
2023-02-04T04:34:39.512Z,103399.00
2023-02-04T04:36:41.481Z,103389.41
2023-02-04T04:38:45.661Z,103401.56
2023-02-04T04:40:47.409Z,103407.13
2023-02-04T04:42:49.186Z,103401.16
2023-02-04T04:44:50.991Z,103404.78
2023-02-04T04:46:52.869Z,103401.75
2023-02-04T04:48:55.216Z,103401.75
2023-02-04T04:50:58.354Z,103405.44
2023-02-04T04:53:00.132Z,103413.44
2023-02-04T04:55:01.977Z,103411.47
2023-02-04T04:57:04.231Z,103413.06
2023-02-04T04:59:05.983Z,103412.28
2023-02-04T05:01:07.783Z,103419.72
2023-02-04T05:03:09.668Z,103424.78
2023-02-04T05:05:12.577Z,103428.22
2023-02-04T05:07:14.446Z,103430.56
2023-02-04T05:09:17.670Z,103428.41
2023-02-04T05:11:19.754Z,103425.41
2023-02-04T05:13:24.362Z,103431.63
2023-02-04T05:15:26.508Z,103420.25
2023-02-04T05:17:28.779Z,103419.50
2023-02-04T05:19:30.988Z,103419.88
2023-02-04T05:21:32.774Z,103431.16
2023-02-04T05:23:36.656Z,103424.03
2023-02-04T05:25:41.516Z,103427.69
2023-02-04T05:27:44.533Z,103428.81
2023-02-04T05:29:46.389Z,103429.91
2023-02-04T05:31:48.203Z,103438.78
2023-02-04T05:33:50.059Z,103427.00
2023-02-04T05:35:51.943Z,103438.88
2023-02-04T05:37:53.747Z,103432.56
2023-02-04T05:39:55.579Z,103434.25
2023-02-04T05:41:57.777Z,103441.00
2023-02-04T05:43:59.590Z,103442.50
2023-02-04T05:46:01.998Z,103441.09
2023-02-04T05:48:04.496Z,103441.09
2023-02-04T05:50:07.420Z,103436.94
2023-02-04T05:52:09.174Z,103440.47
2023-02-04T05:54:11.343Z,103443.78
2023-02-04T05:56:13.115Z,103443.78
2023-02-04T05:58:14.936Z,103445.28
2023-02-04T06:00:17.343Z,103449.72
2023-02-04T06:02:19.661Z,103448.03
2023-02-04T06:04:22.031Z,103445.78
2023-02-04T06:06:26.345Z,103447.66
2023-02-04T06:08:30.564Z,103449.53
2023-02-04T06:10:33.039Z,103446.66
2023-02-04T06:12:35.454Z,103449.25
2023-02-04T06:14:37.273Z,103449.34
2023-02-04T06:16:39.642Z,103453.41
2023-02-04T06:18:45.449Z,103451.41
2023-02-04T06:20:47.285Z,103451.25
2023-02-04T06:22:51.772Z,103447.47
2023-02-04T06:24:53.660Z,103448.88
2023-02-04T06:26:55.446Z,103448.00
2023-02-04T06:28:57.649Z,103457.59
2023-02-04T06:30:59.744Z,103460.16
2023-02-04T06:33:01.601Z,103461.06
2023-02-04T06:35:03.467Z,103459.19
2023-02-04T06:37:05.268Z,103463.63
2023-02-04T06:39:07.027Z,103461.34
2023-02-04T06:41:08.790Z,103473.16
2023-02-04T06:43:10.563Z,103476.88
2023-02-04T06:45:12.729Z,103478.34
2023-02-04T06:47:14.595Z,103471.84
2023-02-04T06:49:16.345Z,103472.75
2023-02-04T06:51:18.487Z,103476.34
2023-02-04T06:53:20.264Z,103483.75
2023-02-04T06:55:22.035Z,103480.38
2023-02-04T06:57:23.900Z,103488.22
2023-02-04T06:59:29.495Z,103481.50
2023-02-04T07:01:33.936Z,103480.09
2023-02-04T07:03:35.716Z,103483.66
2023-02-04T07:05:37.551Z,103477.81
2023-02-04T07:07:39.695Z,103485.53
2023-02-04T07:09:42.599Z,103484.84
2023-02-04T07:11:44.432Z,103482.38
2023-02-04T07:13:46.197Z,103489.00
2023-02-04T07:15:47.998Z,103480.56
2023-02-04T07:17:50.146Z,103471.28
2023-02-04T07:19:52.991Z,103476.53
2023-02-04T07:21:57.179Z,103481.69
2023-02-04T07:23:59.592Z,103491.69
2023-02-04T07:26:03.471Z,103487.63
2023-02-04T07:28:06.204Z,103491.22
2023-02-04T07:30:09.637Z,103495.84
2023-02-04T07:32:11.468Z,103496.03
2023-02-04T07:34:14.568Z,103490.88
2023-02-04T07:36:16.326Z,103487.94
2023-02-04T07:38:18.191Z,103497.34
2023-02-04T07:40:22.031Z,103491.53
2023-02-04T07:42:26.158Z,103499.16
2023-02-04T07:44:28.160Z,103489.44
2023-02-04T07:46:30.827Z,103502.09
2023-02-04T07:48:32.752Z,103502.19
2023-02-04T07:50:35.124Z,103507.25
2023-02-04T07:52:37.237Z,103513.38
2023-02-04T07:54:39.421Z,103507.34
2023-02-04T07:56:41.533Z,103502.69
2023-02-04T07:58:43.394Z,103511.31
2023-02-04T08:00:45.271Z,103518.25
2023-02-04T08:02:47.510Z,103514.28
2023-02-04T08:04:49.333Z,103514.28
2023-02-04T08:06:51.205Z,103520.81
2023-02-04T08:08:53.515Z,103526.69
2023-02-04T08:10:55.384Z,103526.59
2023-02-04T08:12:57.683Z,103526.59
2023-02-04T08:15:00.103Z,103524.72
2023-02-04T08:17:01.941Z,103528.47
2023-02-04T08:19:04.415Z,103529.53
2023-02-04T08:21:06.548Z,103530.31
2023-02-04T08:23:09.118Z,103536.19
2023-02-04T08:25:12.917Z,103532.72
2023-02-04T08:27:14.902Z,103544.53
2023-02-04T08:29:16.727Z,103543.63
2023-02-04T08:31:18.998Z,103542.94
2023-02-04T08:33:22.327Z,103546.41
2023-02-04T08:35:24.301Z,103556.91
2023-02-04T08:37:26.457Z,103553.25
2023-02-04T08:39:28.410Z,103552.53
2023-02-04T08:41:30.895Z,103557.88
2023-02-04T08:43:32.690Z,103559.25
2023-02-04T08:45:34.470Z,103567.22
2023-02-04T08:47:38.600Z,103561.06
2023-02-04T08:49:40.464Z,103564.41
2023-02-04T08:51:42.485Z,103568.69
2023-02-04T08:53:44.569Z,103569.47
2023-02-04T08:55:48.664Z,103580.00
2023-02-04T08:57:50.554Z,103578.50
2023-02-04T08:59:52.460Z,103575.63
2023-02-04T09:01:54.443Z,103575.72
2023-02-04T09:03:56.346Z,103573.25
2023-02-04T09:05:58.284Z,103580.97
2023-02-04T09:08:00.154Z,103579.91
2023-02-04T09:10:04.737Z,103579.31
2023-02-04T09:12:06.688Z,103583.75
2023-02-04T09:14:08.838Z,103581.97
2023-02-04T09:16:10.960Z,103583.75
2023-02-04T09:18:16.852Z,103582.19
2023-02-04T09:20:19.005Z,103585.66
2023-02-04T09:22:20.816Z,103590.03
2023-02-04T09:24:24.801Z,103588.44
2023-02-04T09:26:26.614Z,103585.75
2023-02-04T09:28:28.560Z,103588.81
2023-02-04T09:30:31.272Z,103582.75
2023-02-04T09:32:33.700Z,103584.88
2023-02-04T09:34:35.565Z,103578.31
2023-02-04T09:36:39.074Z,103581.88
2023-02-04T09:38:41.186Z,103581.38
2023-02-04T09:40:54.797Z,103579.97
2023-02-04T09:42:56.798Z,103585.34
2023-02-04T09:45:00.856Z,103582.78
2023-02-04T09:47:03.338Z,103583.94
2023-02-04T09:49:08.285Z,103586.63
2023-02-04T09:51:16.606Z,103587.13
2023-02-04T09:53:23.632Z,103592.69
2023-02-04T09:55:32.131Z,103593.09
2023-02-04T09:57:34.452Z,103598.91
2023-02-04T09:59:36.344Z,103601.72
2023-02-04T10:01:40.372Z,103601.09
2023-02-04T10:03:47.005Z,103608.25
2023-02-04T10:05:50.573Z,103601.50
2023-02-04T10:07:52.584Z,103603.56
2023-02-04T10:09:55.300Z,103601.97
2023-02-04T10:12:01.065Z,103601.13
2023-02-04T10:14:03.059Z,103604.00
2023-02-04T10:16:14.870Z,103601.59
2023-02-04T10:18:27.252Z,103605.16
2023-02-04T10:20:29.332Z,103601.97
2023-02-04T10:22:31.614Z,103606.53
2023-02-04T10:24:34.772Z,103604.25
2023-02-04T10:26:37.012Z,103601.16
2023-02-04T10:28:40.520Z,103605.91
2023-02-04T10:30:43.968Z,103612.06
2023-02-04T10:32:46.445Z,103608.06
2023-02-04T10:34:50.476Z,103614.13
2023-02-04T10:36:55.840Z,103614.13
2023-02-04T10:39:04.057Z,103615.09
2023-02-04T10:41:06.561Z,103621.16
2023-02-04T10:43:11.624Z,103620.97
2023-02-04T10:45:19.804Z,103621.63
2023-02-04T10:47:25.466Z,103617.47
2023-02-04T10:49:27.820Z,103623.81
2023-02-04T10:51:29.744Z,103630.03
2023-02-04T10:53:34.829Z,103620.53
2023-02-04T10:55:36.868Z,103624.16
2023-02-04T10:57:41.196Z,103621.28
2023-02-04T10:59:44.799Z,103622.31
2023-02-04T11:01:46.757Z,103631.31
2023-02-04T11:03:50.479Z,103632.19
2023-02-04T11:05:58.581Z,103630.50
2023-02-04T11:08:01.550Z,103631.94
2023-02-04T11:10:03.796Z,103638.22
2023-02-04T11:12:06.085Z,103631.53
2023-02-04T11:14:24.181Z,103638.09
2023-02-04T11:16:30.567Z,103630.34
2023-02-04T11:18:32.656Z,103628.31
2023-02-04T11:20:39.781Z,103626.19
2023-02-04T11:22:45.090Z,103618.88
2023-02-04T11:24:47.042Z,103617.81
2023-02-04T11:26:54.081Z,103616.09
2023-02-04T11:29:00.586Z,103612.44
2023-02-04T11:31:04.371Z,103617.00
2023-02-04T11:33:21.811Z,103619.28
2023-02-04T11:35:27.690Z,103622.75
2023-02-04T11:37:37.052Z,103619.59
2023-02-04T11:39:42.540Z,103615.63
2023-02-04T11:41:49.813Z,103618.81
2023-02-04T11:43:53.401Z,103615.03
2023-02-04T11:46:01.612Z,103623.78
2023-02-04T11:48:13.819Z,103628.47
2023-02-04T11:50:25.128Z,103617.34
2023-02-04T11:52:27.018Z,103625.09
2023-02-04T11:54:28.887Z,103628.16
2023-02-04T11:56:30.953Z,103629.59
2023-02-04T11:58:33.102Z,103621.72
2023-02-04T12:00:35.081Z,103627.78
2023-02-04T12:02:42.919Z,103627.59
2023-02-04T12:04:51.220Z,103625.72
2023-02-04T12:06:59.659Z,103619.59
2023-02-04T12:09:07.825Z,103624.22
2023-02-04T12:11:28.204Z,103625.09
2023-02-04T12:13:32.520Z,103617.84
2023-02-04T12:15:36.546Z,103620.66
2023-02-04T12:17:38.704Z,103630.25
2023-02-04T12:19:40.941Z,103623.50
2023-02-04T12:21:43.161Z,103623.41
2023-02-04T12:23:48.099Z,103626.38
2023-02-04T12:25:51.127Z,103629.78
2023-02-04T12:27:55.856Z,103631.72
2023-02-04T12:29:57.974Z,103632.94
2023-02-04T12:32:02.708Z,103624.59
2023-02-04T12:34:04.599Z,103636.00
2023-02-04T12:36:07.532Z,103632.25
2023-02-04T12:38:10.493Z,103637.91
2023-02-04T12:40:16.894Z,103639.13
2023-02-04T12:42:18.970Z,103641.91
2023-02-04T12:44:20.898Z,103637.72
2023-02-04T12:46:25.134Z,103638.34
2023-02-04T12:48:27.124Z,103630.44
2023-02-04T12:50:31.178Z,103626.56
2023-02-04T12:52:33.160Z,103629.56
2023-02-04T12:54:35.804Z,103632.63
2023-02-04T12:56:37.665Z,103627.19
2023-02-04T12:58:39.619Z,103636.97
2023-02-04T13:00:42.384Z,103639.06
2023-02-04T13:02:44.676Z,103647.81
2023-02-04T13:04:46.584Z,103639.75
2023-02-04T13:06:49.200Z,103646.91
2023-02-04T13:08:51.036Z,103650.19
2023-02-04T13:10:53.214Z,103648.06
2023-02-04T13:12:55.292Z,103652.94
2023-02-04T13:14:57.269Z,103645.28
2023-02-04T13:16:59.834Z,103644.78
2023-02-04T13:19:01.720Z,103646.84
2023-02-04T13:21:03.828Z,103641.28
2023-02-04T13:23:05.759Z,103644.00
2023-02-04T13:25:07.823Z,103640.13
2023-02-04T13:27:15.765Z,103637.44
2023-02-04T13:29:17.820Z,103644.28
2023-02-04T13:31:19.961Z,103641.13
2023-02-04T13:33:21.878Z,103638.22
2023-02-04T13:35:25.561Z,103639.13
2023-02-04T13:37:27.669Z,103632.19
2023-02-04T13:39:30.051Z,103627.72
2023-02-04T13:41:32.058Z,103626.66
2023-02-04T13:43:34.077Z,103631.59
2023-02-04T13:45:36.243Z,103635.94
2023-02-04T13:47:41.033Z,103628.44
2023-02-04T13:49:43.294Z,103624.97
2023-02-04T13:51:45.244Z,103623.44
2023-02-04T13:53:47.138Z,103614.91
2023-02-04T13:55:49.221Z,103624.34
2023-02-04T13:57:51.161Z,103625.75
2023-02-04T13:59:53.676Z,103628.91
2023-02-04T14:01:55.658Z,103626.75
2023-02-04T14:03:57.926Z,103624.88
2023-02-04T14:05:59.848Z,103628.78
2023-02-04T14:08:01.938Z,103630.47
2023-02-04T14:10:04.591Z,103624.06
2023-02-04T14:12:07.056Z,103622.09
2023-02-04T14:14:09.168Z,103628.22
2023-02-04T14:16:11.100Z,103621.38
2023-02-04T14:18:13.464Z,103630.22
2023-02-04T14:20:15.501Z,103624.66
2023-02-04T14:22:17.674Z,103624.28
2023-02-04T14:24:20.686Z,103628.22
2023-02-04T14:26:22.582Z,103632.88
2023-02-04T14:28:24.604Z,103632.03
2023-02-04T14:30:28.417Z,103639.53
2023-02-04T14:32:30.659Z,103617.94
2023-02-04T14:34:32.667Z,103621.88
2023-02-04T14:36:34.584Z,103624.66
2023-02-04T14:38:39.263Z,103630.69
2023-02-04T14:40:41.576Z,103629.34
2023-02-04T14:42:43.600Z,103621.81
2023-02-04T14:44:47.675Z,103623.47
2023-02-04T14:46:49.847Z,103620.69
2023-02-04T14:48:54.639Z,103612.19
2023-02-04T14:50:56.603Z,103618.50
2023-02-04T14:52:58.649Z,103623.66
2023-02-04T14:55:00.713Z,103622.97
2023-02-04T14:57:02.633Z,103622.69
2023-02-04T14:59:04.699Z,103629.53
2023-02-04T15:01:06.646Z,103617.53
2023-02-04T15:03:08.630Z,103609.47
2023-02-04T15:05:11.180Z,103611.47
2023-02-04T15:07:13.380Z,103613.34
2023-02-04T15:09:17.527Z,103618.69
2023-02-04T15:11:19.438Z,103616.13
2023-02-04T15:13:21.361Z,103613.97
2023-02-04T15:15:23.345Z,103616.13
2023-02-04T15:17:25.288Z,103613.25
2023-02-04T15:19:29.719Z,103612.38
2023-02-04T15:21:31.728Z,103617.91
2023-02-04T15:23:33.638Z,103617.00
2023-02-04T15:25:35.719Z,103627.31
2023-02-04T15:27:37.686Z,103629.22
2023-02-04T15:29:39.671Z,103626.66
2023-02-04T15:31:41.702Z,103629.09
2023-02-04T15:33:43.780Z,103632.47
2023-02-04T15:35:46.091Z,103631.59
2023-02-04T15:37:49.106Z,103637.94
2023-02-04T15:39:51.063Z,103629.50
2023-02-04T15:41:52.935Z,103627.72
2023-02-04T15:43:55.370Z,103632.19
2023-02-04T15:45:57.354Z,103633.78
2023-02-04T15:47:59.329Z,103632.00
2023-02-04T15:50:01.333Z,103630.22
2023-02-04T15:52:04.783Z,103635.19
2023-02-04T15:54:09.101Z,103629.41
2023-02-04T15:56:10.968Z,103631.28
2023-02-04T15:58:15.208Z,103628.63
2023-02-04T16:00:17.461Z,103638.22
2023-02-04T16:02:22.304Z,103627.22
2023-02-04T16:04:24.240Z,103623.38
2023-02-04T16:06:26.075Z,103626.66
2023-02-04T16:08:28.298Z,103618.13
2023-02-04T16:10:30.346Z,103609.75
2023-02-04T16:12:32.282Z,103603.53
2023-02-04T16:14:34.378Z,103615.53
2023-02-04T16:16:36.647Z,103608.59
2023-02-04T16:18:38.632Z,103621.28
2023-02-04T16:20:40.564Z,103624.66
2023-02-04T16:22:42.847Z,103634.16
2023-02-04T16:24:44.906Z,103624.28
2023-02-04T16:26:47.277Z,103631.13
2023-02-04T16:28:49.576Z,103634.91
2023-02-04T16:30:53.865Z,103638.19
2023-02-04T16:32:55.952Z,103649.16
2023-02-04T16:35:00.495Z,103652.94
2023-02-04T16:37:02.772Z,103652.38
2023-02-04T16:39:04.818Z,103645.31
2023-02-04T16:41:07.807Z,103659.41
2023-02-04T16:43:09.678Z,103655.94
2023-02-04T16:45:13.511Z,103659.78
2023-02-04T16:47:15.455Z,103656.91
2023-02-04T16:49:17.953Z,103658.31
2023-02-04T16:51:20.593Z,103660.09
2023-02-04T16:53:23.156Z,103648.00
2023-02-04T16:55:27.829Z,103656.63
2023-02-04T16:57:29.704Z,103664.56
2023-02-04T16:59:32.492Z,103661.59
2023-02-04T17:01:34.451Z,103664.84
2023-02-04T17:03:36.409Z,103667.72
2023-02-04T17:05:41.763Z,103673.59
2023-02-04T17:07:43.697Z,103676.44
2023-02-04T17:09:46.019Z,103680.91
2023-02-04T17:11:47.962Z,103683.00
2023-02-04T17:13:49.791Z,103684.66
2023-02-04T17:15:52.198Z,103696.28
2023-02-04T17:17:54.056Z,103692.50
2023-02-04T17:19:56.040Z,103696.47
2023-02-04T17:21:57.894Z,103697.38
2023-02-04T17:24:04.217Z,103703.03
2023-02-04T17:26:06.655Z,103705.91
2023-02-04T17:28:08.633Z,103714.50
2023-02-04T17:30:11.481Z,103706.78
2023-02-04T17:32:16.402Z,103711.38
2023-02-04T17:34:18.535Z,103713.81
2023-02-04T17:36:22.640Z,103703.41
2023-02-04T17:38:28.539Z,103707.47
2023-02-04T17:40:31.441Z,103707.56
2023-02-04T17:42:33.759Z,103714.13
2023-02-04T17:44:35.761Z,103709.97
2023-02-04T17:46:37.713Z,103714.31
2023-02-04T17:48:39.987Z,103716.09
2023-02-04T17:50:43.528Z,103722.06
2023-02-04T17:52:45.705Z,103722.63
2023-02-04T17:54:47.730Z,103717.28
2023-02-04T17:56:50.601Z,103719.66
2023-02-04T17:58:54.435Z,103723.94
2023-02-04T18:00:58.114Z,103722.25
2023-02-04T18:03:00.277Z,103719.06
2023-02-04T18:05:13.051Z,103724.38
2023-02-04T18:07:14.915Z,103711.84
2023-02-04T18:09:18.749Z,103720.63
2023-02-04T18:11:27.407Z,103729.16
2023-02-04T18:13:33.136Z,103722.41
2023-02-04T18:15:36.856Z,103727.38
2023-02-04T18:17:39.191Z,103729.06
2023-02-04T18:19:42.521Z,103738.34
2023-02-04T18:21:45.442Z,103737.69
2023-02-04T18:23:49.851Z,103735.81
2023-02-04T18:25:52.381Z,103721.16
2023-02-04T18:27:54.982Z,103727.47
2023-02-04T18:30:00.363Z,103721.88
2023-02-04T18:32:07.022Z,103727.53
2023-02-04T18:34:16.960Z,103723.28
2023-02-04T18:36:20.661Z,103725.16
2023-02-04T18:38:27.020Z,103723.44
2023-02-04T18:40:31.352Z,103724.75
2023-02-04T18:42:33.309Z,103727.41
2023-02-04T18:44:39.174Z,103720.38
2023-02-04T18:46:46.988Z,103728.19
2023-02-04T18:48:52.524Z,103729.25
2023-02-04T18:50:54.950Z,103729.25
2023-02-04T18:53:06.878Z,103722.56
2023-02-04T18:55:15.109Z,103724.25
2023-02-04T18:57:29.011Z,103730.69
2023-02-04T18:59:31.293Z,103732.88
2023-02-04T19:01:39.003Z,103721.44
2023-02-04T19:03:47.973Z,103721.97
2023-02-04T19:05:51.364Z,103725.88
2023-02-04T19:08:00.101Z,103728.09
2023-02-04T19:10:14.848Z,103738.31
2023-02-04T19:12:22.380Z,103730.59
2023-02-04T19:14:33.147Z,103724.91
2023-02-04T19:16:36.829Z,103730.22
2023-02-04T19:18:43.190Z,103742.63
2023-02-04T19:20:45.069Z,103739.84
2023-02-04T19:22:50.440Z,103738.53
2023-02-04T19:24:59.345Z,103739.84
2023-02-04T19:27:02.583Z,103740.13
2023-02-04T19:29:10.635Z,103737.88
2023-02-04T19:31:13.301Z,103742.31
2023-02-04T19:33:24.114Z,103746.06
2023-02-04T19:35:28.016Z,103742.56
2023-02-04T19:37:36.171Z,103740.22
2023-02-04T19:39:40.568Z,103734.19
2023-02-04T19:41:48.713Z,103740.22
2023-02-04T19:43:50.609Z,103749.38
2023-02-04T19:45:54.003Z,103744.53
2023-02-04T19:47:57.331Z,103738.69
2023-02-04T19:50:04.238Z,103739.38
2023-02-04T19:52:21.797Z,103735.31
2023-02-04T19:54:32.053Z,103726.59
2023-02-04T19:56:36.441Z,103726.66
2023-02-04T19:58:44.947Z,103722.28
2023-02-04T20:00:56.255Z,103721.69
2023-02-04T20:02:58.648Z,103732.94
2023-02-04T20:05:01.059Z,103727.91
2023-02-04T20:07:08.189Z,103728.22
2023-02-04T20:09:16.561Z,103734.47
2023-02-04T20:11:22.338Z,103733.59
2023-02-04T20:13:26.940Z,103728.88
2023-02-04T20:15:28.894Z,103731.75
2023-02-04T20:17:36.391Z,103738.34
2023-02-04T20:19:39.107Z,103738.97
2023-02-04T20:21:41.077Z,103738.38
2023-02-04T20:23:43.056Z,103745.31
2023-02-04T20:25:47.988Z,103748.69
2023-02-04T20:27:57.274Z,103744.53
2023-02-04T20:30:20.277Z,103742.94
2023-02-04T20:32:28.123Z,103729.06
2023-02-04T20:34:35.941Z,103735.97
2023-02-04T20:36:42.513Z,103762.59
2023-02-04T20:38:46.039Z,103769.28
2023-02-04T20:40:48.097Z,103763.94
2023-02-04T20:42:53.004Z,103769.75
2023-02-04T20:45:01.916Z,103764.59
2023-02-04T20:47:17.882Z,103765.47
2023-02-04T20:49:23.850Z,103757.28
2023-02-04T20:51:27.398Z,103760.88
2023-02-04T20:53:37.491Z,103752.94
2023-02-04T20:55:39.746Z,103755.63
2023-02-04T20:57:41.523Z,103759.13
2023-02-04T20:59:44.942Z,103759.66
2023-02-04T21:01:49.798Z,103758.19
2023-02-04T21:03:51.876Z,103748.16
2023-02-04T21:05:56.212Z,103740.31
2023-02-04T21:08:02.115Z,103755.78
2023-02-04T21:10:04.561Z,103756.31
2023-02-04T21:12:07.398Z,103760.75
2023-02-04T21:14:11.761Z,103761.72
2023-02-04T21:16:13.742Z,103762.69
2023-02-04T21:18:15.786Z,103758.09
2023-02-04T21:20:18.152Z,103756.84
2023-02-04T21:22:19.982Z,103760.56
2023-02-04T21:24:21.978Z,103758.09
2023-02-04T21:26:26.280Z,103749.81
2023-02-04T21:28:28.856Z,103754.19
2023-02-04T21:30:31.228Z,103755.06
2023-02-04T21:32:33.142Z,103751.59
2023-02-04T21:34:35.070Z,103752.31
2023-02-04T21:36:36.952Z,103747.06
2023-02-04T21:38:38.927Z,103745.38
2023-02-04T21:40:44.241Z,103736.41
2023-02-04T21:42:46.456Z,103737.38
2023-02-04T21:44:48.337Z,103737.38
2023-02-04T21:46:50.184Z,103728.06
2023-02-04T21:48:52.071Z,103737.59
2023-02-04T21:50:56.330Z,103747.00
2023-02-04T21:52:58.537Z,103748.72
2023-02-04T21:55:00.367Z,103747.69
2023-02-04T21:57:04.418Z,103747.88
2023-02-04T21:59:06.237Z,103740.53
2023-02-04T22:01:10.356Z,103743.00
2023-02-04T22:03:16.069Z,103739.16
2023-02-04T22:05:18.251Z,103743.88
2023-02-04T22:07:20.578Z,103744.41
2023-02-04T22:09:22.395Z,103741.25
2023-02-04T22:11:24.302Z,103744.53
2023-02-04T22:13:26.259Z,103727.72
2023-02-04T22:15:28.842Z,103736.00
2023-02-04T22:17:31.048Z,103733.66
2023-02-04T22:19:32.887Z,103725.69
2023-02-04T22:21:36.408Z,103733.53
2023-02-04T22:23:39.716Z,103737.13
2023-02-04T22:25:41.575Z,103740.47
2023-02-04T22:27:43.457Z,103742.78
2023-02-04T22:29:45.389Z,103743.97
2023-02-04T22:31:47.381Z,103743.03
2023-02-04T22:33:51.962Z,103739.22
2023-02-04T22:35:53.831Z,103737.00
2023-02-04T22:37:55.771Z,103745.75
2023-02-04T22:39:58.072Z,103743.56
2023-02-04T22:42:00.125Z,103748.72
2023-02-04T22:44:01.978Z,103744.69
2023-02-04T22:46:03.892Z,103741.50
2023-02-04T22:48:07.895Z,103746.13
2023-02-04T22:50:12.837Z,103743.78
2023-02-04T22:52:17.321Z,103743.38
2023-02-04T22:54:19.430Z,103744.00
2023-02-04T22:56:21.870Z,103747.94
2023-02-04T22:58:23.838Z,103746.13
2023-02-04T23:00:25.753Z,103743.66
2023-02-04T23:02:27.586Z,103749.41
2023-02-04T23:04:29.385Z,103747.81
2023-02-04T23:06:31.470Z,103755.34
2023-02-04T23:08:33.292Z,103751.69
2023-02-04T23:10:35.142Z,103749.22
2023-02-04T23:12:37.073Z,103747.13
2023-02-04T23:14:44.110Z,103735.22
2023-02-04T23:16:47.303Z,103739.38
2023-02-04T23:18:49.404Z,103753.97
2023-02-04T23:20:51.302Z,103759.56
2023-02-04T23:22:54.954Z,103747.00
2023-02-04T23:24:57.741Z,103748.09
2023-02-04T23:27:00.337Z,103743.81